createdAt,value
2019-03-23T00:01:55.770Z,11.47
2019-03-23T00:04:59.091Z,11.40
2019-03-23T00:08:02.415Z,11.53
2019-03-23T00:11:05.813Z,11.67
2019-03-23T00:14:09.152Z,11.58
2019-03-23T00:17:12.488Z,11.46
2019-03-23T00:20:16.289Z,11.51
2019-03-23T00:23:19.621Z,11.44
2019-03-23T00:26:22.927Z,11.54
2019-03-23T00:29:26.266Z,11.27
2019-03-23T00:32:29.571Z,11.06
2019-03-23T00:35:32.899Z,10.98
2019-03-23T00:38:36.225Z,11.02
2019-03-23T00:41:39.554Z,11.16
2019-03-23T00:44:42.907Z,11.36
2019-03-23T00:47:46.191Z,11.24
2019-03-23T00:50:49.604Z,11.11
2019-03-23T00:53:52.966Z,11.02
2019-03-23T00:56:56.299Z,10.88
2019-03-23T00:59:59.632Z,11.06
2019-03-23T01:03:02.960Z,11.14
2019-03-23T01:06:06.282Z,11.16
2019-03-23T01:09:09.624Z,11.24
2019-03-23T01:12:12.923Z,11.21
2019-03-23T01:15:16.250Z,11.26
2019-03-23T01:18:19.548Z,11.31
2019-03-23T01:21:23.150Z,11.20
2019-03-23T01:24:26.470Z,11.03
2019-03-23T01:27:32.928Z,10.75
2019-03-23T01:30:36.555Z,10.62
2019-03-23T01:33:43.395Z,10.74
2019-03-23T01:36:47.181Z,10.91
2019-03-23T01:39:50.554Z,10.62
2019-03-23T01:42:54.256Z,10.61
2019-03-23T01:45:58.172Z,10.61
2019-03-23T01:49:02.388Z,10.41
2019-03-23T01:52:06.465Z,10.58
2019-03-23T01:55:10.105Z,10.60
2019-03-23T01:58:14.282Z,10.60
2019-03-23T02:01:18.628Z,10.62
2019-03-23T02:04:22.457Z,10.70
2019-03-23T02:07:25.791Z,10.60
2019-03-23T02:10:30.218Z,10.28
2019-03-23T02:13:34.002Z,10.31
2019-03-23T02:16:39.747Z,10.51
2019-03-23T02:19:43.428Z,10.46
2019-03-23T02:22:49.459Z,9.76
2019-03-23T02:25:53.358Z,9.89
2019-03-23T02:28:57.343Z,9.87
2019-03-23T02:32:01.616Z,10.18
2019-03-23T02:35:09.056Z,10.18
2019-03-23T02:38:12.400Z,10.04
2019-03-23T02:41:15.682Z,10.25
2019-03-23T02:44:19.089Z,10.01
2019-03-23T02:47:22.427Z,10.16
2019-03-23T02:50:25.850Z,10.17
2019-03-23T02:53:29.182Z,10.21
2019-03-23T02:56:32.520Z,10.24
2019-03-23T02:59:35.846Z,10.24
2019-03-23T03:02:39.188Z,10.22
2019-03-23T03:05:42.510Z,10.23
2019-03-23T03:08:45.828Z,10.28
2019-03-23T03:11:49.147Z,10.30
2019-03-23T03:14:52.489Z,10.00
2019-03-23T03:17:55.815Z,9.89
2019-03-23T03:20:59.389Z,9.94
2019-03-23T03:24:02.701Z,9.90
2019-03-23T03:27:06.018Z,10.06
2019-03-23T03:30:11.146Z,9.97
2019-03-23T03:33:14.443Z,9.84
2019-03-23T03:36:17.753Z,9.93
2019-03-23T03:39:21.061Z,9.99
2019-03-23T03:42:24.449Z,9.85
2019-03-23T03:45:29.103Z,9.73
2019-03-23T03:48:32.413Z,9.63
2019-03-23T03:51:35.724Z,9.70
2019-03-23T03:54:39.020Z,9.43
2019-03-23T03:57:42.332Z,9.42
2019-03-23T04:00:45.624Z,9.52
2019-03-23T04:03:48.938Z,9.52
2019-03-23T04:06:52.237Z,9.63
2019-03-23T04:09:55.565Z,9.67
2019-03-23T04:12:59.068Z,9.66
2019-03-23T04:16:02.365Z,9.58
2019-03-23T04:19:05.693Z,9.51
2019-03-23T04:22:08.974Z,9.67
2019-03-23T04:25:12.301Z,9.65
2019-03-23T04:28:15.627Z,9.63
2019-03-23T04:31:18.939Z,9.40
2019-03-23T04:34:22.261Z,9.59
2019-03-23T04:37:25.567Z,9.28
2019-03-23T04:40:28.865Z,9.37
2019-03-23T04:43:32.169Z,9.39
2019-03-23T04:46:35.501Z,9.45
2019-03-23T04:49:38.829Z,9.51
2019-03-23T04:52:42.131Z,9.55
2019-03-23T04:55:45.440Z,9.29
2019-03-23T04:58:48.739Z,9.35
2019-03-23T05:01:52.069Z,9.39
2019-03-23T05:04:55.369Z,9.45
2019-03-23T05:07:58.701Z,9.41
2019-03-23T05:11:02.042Z,9.37
2019-03-23T05:14:05.344Z,9.29
2019-03-23T05:17:08.692Z,9.34
2019-03-23T05:20:13.728Z,9.37
2019-03-23T05:23:17.030Z,9.23
2019-03-23T05:26:20.343Z,9.38
2019-03-23T05:29:23.660Z,9.69
2019-03-23T05:32:27.014Z,10.16
2019-03-23T05:35:30.323Z,10.58
2019-03-23T05:38:43.613Z,10.89
2019-03-23T05:41:38.703Z,11.36
2019-03-23T05:44:42.478Z,11.90
2019-03-23T05:47:45.796Z,12.36
2019-03-23T05:50:49.105Z,13.02
2019-03-23T05:53:52.437Z,13.65
2019-03-23T05:56:55.790Z,13.49
2019-03-23T05:59:59.108Z,13.67
2019-03-23T06:03:02.432Z,14.59
2019-03-23T06:06:05.733Z,15.30
2019-03-23T06:09:09.059Z,15.39
2019-03-23T06:12:12.372Z,16.11
2019-03-23T06:15:15.676Z,16.44
2019-03-23T06:18:19.022Z,16.61
2019-03-23T06:21:22.321Z,16.21
2019-03-23T06:24:25.657Z,16.66
2019-03-23T06:27:28.966Z,16.79
2019-03-23T06:30:32.308Z,17.13
2019-03-23T06:33:35.653Z,17.78
2019-03-23T06:36:39.107Z,17.61
2019-03-23T06:39:42.505Z,18.35
2019-03-23T06:42:45.923Z,19.22
2019-03-23T06:45:49.354Z,20.03
2019-03-23T06:48:52.751Z,19.96
2019-03-23T06:51:56.175Z,20.25
2019-03-23T06:54:59.563Z,19.89
2019-03-23T06:58:02.963Z,20.48
2019-03-23T07:01:06.383Z,20.87
2019-03-23T07:04:09.806Z,20.52
2019-03-23T07:07:13.218Z,21.63
2019-03-23T07:10:16.621Z,21.81
2019-03-23T07:13:20.023Z,21.61
2019-03-23T07:16:24.942Z,21.90
2019-03-23T07:19:28.397Z,22.26
2019-03-23T07:22:31.832Z,22.67
2019-03-23T07:25:35.246Z,22.75
2019-03-23T07:28:38.644Z,23.26
2019-03-23T07:31:42.055Z,22.75
2019-03-23T07:34:45.458Z,21.71
2019-03-23T07:37:48.873Z,22.27
2019-03-23T07:40:52.278Z,21.96
2019-03-23T07:43:55.689Z,22.80
2019-03-23T07:46:59.104Z,22.46
2019-03-23T07:50:02.585Z,22.72
2019-03-23T07:53:06.247Z,20.85
2019-03-23T07:56:09.645Z,22.64
2019-03-23T07:59:13.062Z,22.65
2019-03-23T08:02:16.482Z,23.10
2019-03-23T08:05:19.884Z,23.25
2019-03-23T08:08:23.311Z,23.45
2019-03-23T08:11:26.707Z,24.18
2019-03-23T08:14:30.111Z,25.83
2019-03-23T08:17:33.552Z,25.45
2019-03-23T08:20:36.954Z,25.55
2019-03-23T08:23:40.393Z,26.79
2019-03-23T08:26:43.785Z,28.08
2019-03-23T08:29:47.214Z,27.81
2019-03-23T08:32:50.624Z,27.97
2019-03-23T08:35:53.997Z,27.16
2019-03-23T08:38:57.407Z,27.55
2019-03-23T08:42:00.813Z,28.79
2019-03-23T08:45:05.599Z,29.03
2019-03-23T08:48:09.018Z,29.14
2019-03-23T08:51:12.415Z,29.89
2019-03-23T08:54:15.842Z,31.73
2019-03-23T08:57:19.227Z,33.28
2019-03-23T09:00:22.631Z,33.76
2019-03-23T09:03:26.042Z,34.39
2019-03-23T09:06:29.418Z,34.48
2019-03-23T09:09:32.821Z,35.35
2019-03-23T09:12:36.221Z,35.43
2019-03-23T09:15:39.632Z,34.93
2019-03-23T09:18:43.121Z,34.88
2019-03-23T09:21:46.510Z,35.17
2019-03-23T09:24:49.917Z,34.91
2019-03-23T09:27:53.321Z,33.92
2019-03-23T09:30:56.745Z,33.98
2019-03-23T09:34:00.178Z,32.14
2019-03-23T09:37:03.549Z,30.70
2019-03-23T09:40:10.953Z,29.19
2019-03-23T09:43:12.499Z,29.31
2019-03-23T09:46:15.919Z,30.19
2019-03-23T09:49:19.324Z,29.67
2019-03-23T09:52:22.716Z,29.79
2019-03-23T09:55:28.667Z,30.28
2019-03-23T09:58:32.350Z,29.55
2019-03-23T10:01:35.747Z,29.68
2019-03-23T10:04:39.156Z,29.42
2019-03-23T10:07:42.570Z,30.25
2019-03-23T10:10:45.947Z,29.63
2019-03-23T10:13:49.351Z,28.39
2019-03-23T10:16:52.773Z,27.41
2019-03-23T10:19:56.195Z,26.64
2019-03-23T10:22:59.604Z,26.38
2019-03-23T10:26:03.033Z,27.01
2019-03-23T10:29:06.500Z,26.98
2019-03-23T10:32:09.950Z,26.73
2019-03-23T10:35:13.363Z,26.61
2019-03-23T10:38:16.783Z,25.82
2019-03-23T10:41:20.202Z,26.42
2019-03-23T10:44:23.607Z,26.64
2019-03-23T10:47:27.082Z,26.76
2019-03-23T10:50:30.505Z,26.25
2019-03-23T10:53:33.907Z,26.94
2019-03-23T10:56:37.399Z,26.56
2019-03-23T10:59:41.101Z,26.92
2019-03-23T11:02:44.517Z,27.21
2019-03-23T11:05:48.260Z,26.79
2019-03-23T11:08:51.767Z,26.36
2019-03-23T11:11:55.171Z,26.36
2019-03-23T11:14:58.568Z,26.08
2019-03-23T11:18:02.043Z,25.89
2019-03-23T11:21:05.484Z,25.74
2019-03-23T11:24:08.881Z,25.44
2019-03-23T11:27:12.268Z,25.03
2019-03-23T11:30:15.682Z,24.67
2019-03-23T11:33:19.068Z,24.96
2019-03-23T11:36:22.512Z,25.01
2019-03-23T11:39:25.963Z,24.97
2019-03-23T11:42:29.382Z,24.82
2019-03-23T11:45:32.756Z,24.57
2019-03-23T11:48:36.169Z,24.46
2019-03-23T11:51:39.565Z,24.30
2019-03-23T11:54:42.970Z,24.42
2019-03-23T11:57:46.384Z,24.47
2019-03-23T12:00:49.809Z,24.20
2019-03-23T12:03:53.179Z,24.51
2019-03-23T12:06:56.569Z,24.84
2019-03-23T12:10:00.041Z,24.77
2019-03-23T12:13:03.461Z,24.48
2019-03-23T12:16:06.868Z,24.53
2019-03-23T12:19:10.270Z,24.73
2019-03-23T12:22:13.677Z,24.85
2019-03-23T12:25:17.078Z,24.75
2019-03-23T12:28:20.477Z,24.53
2019-03-23T12:31:23.903Z,24.41
2019-03-23T12:34:27.347Z,24.44
2019-03-23T12:37:32.501Z,24.16
2019-03-23T12:40:36.558Z,24.31
2019-03-23T12:43:40.006Z,24.28
2019-03-23T12:46:48.199Z,24.54
2019-03-23T12:49:48.528Z,24.38
2019-03-23T12:52:51.947Z,24.30
2019-03-23T12:55:55.334Z,24.11
2019-03-23T12:58:58.763Z,23.76
2019-03-23T13:02:02.165Z,23.66
2019-03-23T13:05:06.773Z,23.47
2019-03-23T13:08:10.193Z,23.48
2019-03-23T13:11:23.128Z,22.91
2019-03-23T13:14:18.714Z,22.36
2019-03-23T13:17:22.115Z,22.26
2019-03-23T13:20:25.639Z,22.28
2019-03-23T13:23:29.035Z,22.14
2019-03-23T13:26:32.421Z,22.09
2019-03-23T13:29:35.821Z,21.63
2019-03-23T13:32:39.209Z,21.39
2019-03-23T13:35:42.627Z,21.12
2019-03-23T13:38:46.046Z,20.93
2019-03-23T13:41:50.372Z,20.70
2019-03-23T13:44:53.791Z,20.75
2019-03-23T13:47:57.195Z,20.78
2019-03-23T13:51:02.281Z,20.61
2019-03-23T13:54:05.603Z,20.42
2019-03-23T13:57:08.997Z,20.38
2019-03-23T14:00:12.407Z,19.85
2019-03-23T14:03:15.807Z,19.58
2019-03-23T14:06:19.232Z,19.33
2019-03-23T14:09:22.668Z,19.28
2019-03-23T14:12:26.044Z,19.17
2019-03-23T14:15:29.433Z,19.12
2019-03-23T14:18:32.837Z,18.69
2019-03-23T14:21:36.248Z,18.46
2019-03-23T14:24:39.660Z,18.12
2019-03-23T14:27:43.059Z,17.91
2019-03-23T14:30:46.470Z,17.98
2019-03-23T14:33:49.868Z,17.79
2019-03-23T14:36:53.314Z,17.64
2019-03-23T14:39:56.742Z,17.50
2019-03-23T14:43:00.195Z,17.46
2019-03-23T14:46:03.598Z,17.11
2019-03-23T14:49:06.911Z,16.84
2019-03-23T14:52:10.236Z,16.75
2019-03-23T14:55:13.571Z,16.62
2019-03-23T14:58:16.885Z,16.54
2019-03-23T15:01:20.199Z,16.39
2019-03-23T15:04:23.775Z,16.23
2019-03-23T15:07:27.087Z,16.11
2019-03-23T15:10:30.410Z,16.06
2019-03-23T15:13:33.726Z,15.85
2019-03-23T15:16:37.040Z,15.79
2019-03-23T15:19:40.334Z,15.93
2019-03-23T15:22:43.645Z,15.95
2019-03-23T15:25:46.974Z,15.92
2019-03-23T15:28:50.288Z,15.73
2019-03-23T15:31:53.791Z,15.53
2019-03-23T15:34:57.103Z,15.47
2019-03-23T15:38:01.914Z,15.43
2019-03-23T15:41:05.232Z,15.09
2019-03-23T15:44:08.534Z,14.85
2019-03-23T15:47:11.924Z,14.79
2019-03-23T15:50:15.246Z,14.76
2019-03-23T15:53:18.559Z,14.98
2019-03-23T15:56:21.886Z,14.81
2019-03-23T15:59:25.200Z,14.65
2019-03-23T16:02:28.506Z,14.36
2019-03-23T16:05:31.815Z,14.42
2019-03-23T16:08:35.132Z,14.17
2019-03-23T16:11:38.444Z,14.08
2019-03-23T16:14:41.750Z,13.82
2019-03-23T16:17:45.062Z,13.83
2019-03-23T16:20:48.372Z,13.94
2019-03-23T16:23:51.689Z,13.95
2019-03-23T16:26:55.014Z,13.80
2019-03-23T16:29:58.310Z,13.89
2019-03-23T16:33:01.843Z,14.05
2019-03-23T16:36:05.143Z,13.84
2019-03-23T16:39:08.474Z,13.60
2019-03-23T16:42:11.841Z,13.58
2019-03-23T16:45:15.139Z,13.43
2019-03-23T16:48:18.447Z,13.47
2019-03-23T16:51:21.739Z,13.44
2019-03-23T16:54:25.067Z,13.18
2019-03-23T16:57:28.393Z,13.29
2019-03-23T17:00:36.037Z,13.28
2019-03-23T17:03:39.356Z,13.33
2019-03-23T17:06:46.556Z,13.22
2019-03-23T17:09:47.769Z,13.01
2019-03-23T17:12:55.382Z,12.98
2019-03-23T17:15:56.161Z,12.90
2019-03-23T17:18:59.514Z,12.77
2019-03-23T17:22:02.919Z,12.74
2019-03-23T17:25:06.638Z,12.74
2019-03-23T17:28:09.946Z,12.63
2019-03-23T17:31:13.328Z,12.58
2019-03-23T17:34:16.667Z,12.51
2019-03-23T17:37:20.049Z,12.53
2019-03-23T17:40:24.620Z,12.51
2019-03-23T17:43:27.874Z,12.35
2019-03-23T17:46:31.186Z,12.41
2019-03-23T17:49:34.513Z,12.27
2019-03-23T17:52:37.826Z,12.12
2019-03-23T17:55:41.136Z,12.25
2019-03-23T17:58:44.435Z,12.19
2019-03-23T18:01:47.824Z,12.26
2019-03-23T18:04:51.167Z,12.23
2019-03-23T18:07:54.835Z,12.21
2019-03-23T18:10:58.684Z,12.16
2019-03-23T18:14:06.514Z,12.09
2019-03-23T18:17:10.736Z,12.18
2019-03-23T18:20:14.646Z,12.13
2019-03-23T18:23:18.817Z,12.01
2019-03-23T18:26:22.290Z,12.04
2019-03-23T18:29:25.587Z,12.03
2019-03-23T18:32:29.397Z,11.96
2019-03-23T18:35:33.829Z,12.03
2019-03-23T18:38:39.493Z,11.86
2019-03-23T18:41:42.827Z,11.90
2019-03-23T18:44:46.130Z,11.88
2019-03-23T18:47:49.446Z,11.88
2019-03-23T18:50:54.262Z,11.85
2019-03-23T18:53:58.558Z,11.93
2019-03-23T18:57:02.575Z,11.87
2019-03-23T19:00:08.506Z,11.84
2019-03-23T19:03:12.070Z,11.82
2019-03-23T19:06:16.086Z,11.63
2019-03-23T19:09:20.571Z,11.61
2019-03-23T19:12:23.934Z,11.66
2019-03-23T19:15:27.420Z,11.65
2019-03-23T19:18:30.752Z,11.73
2019-03-23T19:21:34.129Z,11.70
2019-03-23T19:24:38.530Z,11.78
2019-03-23T19:27:41.850Z,11.73
2019-03-23T19:30:45.227Z,11.57
2019-03-23T19:33:48.564Z,11.48
2019-03-23T19:36:51.892Z,11.35
2019-03-23T19:39:55.228Z,11.42
2019-03-23T19:42:59.694Z,11.45
2019-03-23T19:46:03.322Z,11.52
2019-03-23T19:49:06.620Z,11.59
2019-03-23T19:52:09.966Z,11.46
2019-03-23T19:55:13.359Z,11.46
2019-03-23T19:58:16.800Z,11.35
2019-03-23T20:01:20.208Z,11.28
2019-03-23T20:04:23.570Z,11.17
2019-03-23T20:07:33.002Z,11.20
2019-03-23T20:10:31.950Z,11.29
2019-03-23T20:13:35.426Z,11.29
2019-03-23T20:16:38.786Z,11.38
2019-03-23T20:19:42.121Z,11.51
2019-03-23T20:22:45.711Z,11.43
2019-03-23T20:25:49.207Z,11.36
2019-03-23T20:28:52.533Z,11.33
2019-03-23T20:31:55.986Z,11.17
2019-03-23T20:35:01.642Z,11.29
2019-03-23T20:38:04.970Z,11.25
2019-03-23T20:41:08.395Z,11.08
2019-03-23T20:44:11.724Z,11.24
2019-03-23T20:47:15.068Z,11.29
2019-03-23T20:50:18.391Z,11.04
2019-03-23T20:53:21.743Z,10.77
2019-03-23T20:56:25.088Z,10.70
2019-03-23T20:59:28.425Z,10.63
2019-03-23T21:02:31.749Z,10.72
2019-03-23T21:05:35.106Z,10.77
2019-03-23T21:08:38.422Z,10.71
2019-03-23T21:11:41.927Z,10.77
2019-03-23T21:14:45.347Z,10.91
2019-03-23T21:17:51.429Z,10.89
2019-03-23T21:20:53.783Z,10.89
2019-03-23T21:23:57.082Z,10.75
2019-03-23T21:27:02.263Z,10.75
2019-03-23T21:30:13.590Z,10.80
2019-03-23T21:33:16.933Z,10.81
2019-03-23T21:36:20.288Z,10.87
2019-03-23T21:39:23.735Z,10.84
2019-03-23T21:42:27.067Z,10.73
2019-03-23T21:45:30.438Z,10.73
2019-03-23T21:48:33.805Z,10.76
2019-03-23T21:51:37.119Z,10.76
2019-03-23T21:54:40.435Z,10.79
2019-03-23T21:57:43.795Z,10.80
2019-03-23T22:00:47.113Z,10.82
2019-03-23T22:03:50.425Z,10.89
2019-03-23T22:06:54.068Z,10.71
2019-03-23T22:09:57.640Z,10.76
2019-03-23T22:13:01.000Z,10.77
2019-03-23T22:16:05.398Z,10.93
2019-03-23T22:19:08.832Z,10.78
2019-03-23T22:22:12.176Z,10.97
2019-03-23T22:25:15.910Z,10.88
2019-03-23T22:28:19.244Z,11.06
2019-03-23T22:31:22.663Z,11.08
2019-03-23T22:34:25.999Z,11.12
2019-03-23T22:37:29.331Z,11.05
2019-03-23T22:40:32.647Z,10.99
2019-03-23T22:43:36.120Z,10.96
2019-03-23T22:46:39.478Z,10.97
2019-03-23T22:49:42.800Z,10.85
2019-03-23T22:52:46.171Z,10.70
2019-03-23T22:55:49.542Z,10.81
2019-03-23T22:58:52.853Z,10.93
2019-03-23T23:01:56.215Z,10.78
2019-03-23T23:04:59.534Z,10.69
2019-03-23T23:08:02.889Z,10.72
2019-03-23T23:11:06.286Z,10.68
2019-03-23T23:14:09.642Z,10.78
2019-03-23T23:17:12.999Z,10.78
2019-03-23T23:20:16.900Z,10.81
2019-03-23T23:23:20.219Z,10.89
2019-03-23T23:26:23.537Z,10.83
2019-03-23T23:29:29.115Z,10.81
2019-03-23T23:32:32.552Z,10.83
2019-03-23T23:35:36.156Z,10.78
2019-03-23T23:38:39.498Z,10.78
2019-03-23T23:41:42.990Z,10.79
2019-03-23T23:44:46.361Z,10.96
2019-03-23T23:47:49.812Z,10.92
2019-03-23T23:50:53.842Z,10.88
2019-03-23T23:53:57.193Z,10.91
2019-03-23T23:57:00.537Z,10.73
